sensor_id;sensor_type;location;lat;lon;timestamp;P1;durP1;ratioP1;P2;durP2;ratioP2
3755;SDS011;1893;52.526;13.360;2024-03-08T00:00:42;32.83;;;18.27;;
3755;SDS011;1893;52.526;13.360;2024-03-08T00:03:08;31.03;;;16.67;;
3755;SDS011;1893;52.526;13.360;2024-03-08T00:05:35;34.47;;;18.03;;
3755;SDS011;1893;52.526;13.360;2024-03-08T00:08:01;32.90;;;17.47;;
3755;SDS011;1893;52.526;13.360;2024-03-08T00:10:26;31.50;;;17.87;;
3755;SDS011;1893;52.526;13.360;2024-03-08T00:12:53;30.57;;;18.10;;
3755;SDS011;1893;52.526;13.360;2024-03-08T00:15:19;28.93;;;15.83;;
3755;SDS011;1893;52.526;13.360;2024-03-08T00:17:47;30.80;;;16.70;;
3755;SDS011;1893;52.526;13.360;2024-03-08T00:20:14;32.93;;;17.60;;
3755;SDS011;1893;52.526;13.360;2024-03-08T00:22:42;42.20;;;17.57;;
3755;SDS011;1893;52.526;13.360;2024-03-08T00:25:08;29.70;;;16.30;;
3755;SDS011;1893;52.526;13.360;2024-03-08T00:27:34;38.50;;;18.30;;
3755;SDS011;1893;52.526;13.360;2024-03-08T00:30:00;37.07;;;16.90;;
3755;SDS011;1893;52.526;13.360;2024-03-08T00:32:26;35.53;;;18.47;;
3755;SDS011;1893;52.526;13.360;2024-03-08T00:34:56;30.40;;;16.30;;
3755;SDS011;1893;52.526;13.360;2024-03-08T00:37:22;34.23;;;17.97;;
3755;SDS011;1893;52.526;13.360;2024-03-08T00:39:48;31.90;;;16.10;;
3755;SDS011;1893;52.526;13.360;2024-03-08T00:42:15;31.90;;;16.37;;
3755;SDS011;1893;52.526;13.360;2024-03-08T00:44:44;37.20;;;18.77;;
3755;SDS011;1893;52.526;13.360;2024-03-08T00:47:10;31.97;;;18.13;;
3755;SDS011;1893;52.526;13.360;2024-03-08T00:49:35;32.60;;;17.20;;
3755;SDS011;1893;52.526;13.360;2024-03-08T00:52:03;34.53;;;17.27;;
3755;SDS011;1893;52.526;13.360;2024-03-08T00:54:32;31.37;;;16.27;;
3755;SDS011;1893;52.526;13.360;2024-03-08T00:56:58;34.87;;;18.70;;
3755;SDS011;1893;52.526;13.360;2024-03-08T00:59:23;32.27;;;16.97;;
3755;SDS011;1893;52.526;13.360;2024-03-08T01:01:49;34.00;;;17.63;;
3755;SDS011;1893;52.526;13.360;2024-03-08T01:04:14;27.33;;;15.97;;
3755;SDS011;1893;52.526;13.360;2024-03-08T01:06:40;28.90;;;16.63;;
3755;SDS011;1893;52.526;13.360;2024-03-08T01:09:07;31.80;;;15.90;;
3755;SDS011;1893;52.526;13.360;2024-03-08T01:11:34;37.07;;;18.50;;
3755;SDS011;1893;52.526;13.360;2024-03-08T01:13:59;35.07;;;17.87;;
3755;SDS011;1893;52.526;13.360;2024-03-08T01:16:26;32.23;;;16.10;;
3755;SDS011;1893;52.526;13.360;2024-03-08T01:18:51;43.60;;;19.00;;
3755;SDS011;1893;52.526;13.360;2024-03-08T01:21:17;27.87;;;15.80;;
3755;SDS011;1893;52.526;13.360;2024-03-08T01:23:43;38.10;;;17.50;;
3755;SDS011;1893;52.526;13.360;2024-03-08T01:26:08;27.97;;;16.90;;
3755;SDS011;1893;52.526;13.360;2024-03-08T01:28:34;39.87;;;18.77;;
3755;SDS011;1893;52.526;13.360;2024-03-08T01:30:59;33.97;;;17.30;;
3755;SDS011;1893;52.526;13.360;2024-03-08T01:33:26;31.43;;;16.83;;
3755;SDS011;1893;52.526;13.360;2024-03-08T01:35:52;32.77;;;17.30;;
3755;SDS011;1893;52.526;13.360;2024-03-08T01:38:18;28.47;;;15.87;;
3755;SDS011;1893;52.526;13.360;2024-03-08T01:40:46;39.87;;;18.07;;
3755;SDS011;1893;52.526;13.360;2024-03-08T01:43:18;40.67;;;18.30;;
3755;SDS011;1893;52.526;13.360;2024-03-08T01:45:51;37.47;;;17.90;;
3755;SDS011;1893;52.526;13.360;2024-03-08T01:48:18;32.90;;;18.70;;
3755;SDS011;1893;52.526;13.360;2024-03-08T01:50:47;32.67;;;16.87;;
3755;SDS011;1893;52.526;13.360;2024-03-08T01:53:12;37.07;;;17.33;;
3755;SDS011;1893;52.526;13.360;2024-03-08T01:55:40;38.70;;;18.13;;
3755;SDS011;1893;52.526;13.360;2024-03-08T01:58:06;32.20;;;16.80;;
3755;SDS011;1893;52.526;13.360;2024-03-08T02:00:35;34.17;;;16.90;;
3755;SDS011;1893;52.526;13.360;2024-03-08T02:03:05;32.03;;;16.60;;
3755;SDS011;1893;52.526;13.360;2024-03-08T02:05:31;37.20;;;17.27;;
3755;SDS011;1893;52.526;13.360;2024-03-08T02:07:57;27.10;;;15.67;;
3755;SDS011;1893;52.526;13.360;2024-03-08T02:10:23;31.13;;;16.30;;
3755;SDS011;1893;52.526;13.360;2024-03-08T02:12:48;33.23;;;17.20;;
3755;SDS011;1893;52.526;13.360;2024-03-08T02:15:14;35.43;;;17.97;;
3755;SDS011;1893;52.526;13.360;2024-03-08T02:17:40;33.57;;;17.20;;
3755;SDS011;1893;52.526;13.360;2024-03-08T02:20:06;29.73;;;17.00;;
3755;SDS011;1893;52.526;13.360;2024-03-08T02:22:34;30.33;;;16.20;;
3755;SDS011;1893;52.526;13.360;2024-03-08T02:24:59;39.20;;;17.07;;
3755;SDS011;1893;52.526;13.360;2024-03-08T02:27:27;37.07;;;17.63;;
3755;SDS011;1893;52.526;13.360;2024-03-08T02:29:55;34.90;;;17.60;;
3755;SDS011;1893;52.526;13.360;2024-03-08T02:32:21;32.60;;;16.83;;
3755;SDS011;1893;52.526;13.360;2024-03-08T02:34:50;33.77;;;17.93;;
3755;SDS011;1893;52.526;13.360;2024-03-08T02:37:16;36.67;;;16.77;;
3755;SDS011;1893;52.526;13.360;2024-03-08T02:39:42;35.43;;;17.70;;
3755;SDS011;1893;52.526;13.360;2024-03-08T02:42:08;32.77;;;19.00;;
3755;SDS011;1893;52.526;13.360;2024-03-08T02:44:34;34.70;;;19.00;;
3755;SDS011;1893;52.526;13.360;2024-03-08T02:46:59;37.53;;;18.40;;
3755;SDS011;1893;52.526;13.360;2024-03-08T02:49:25;38.10;;;17.53;;
3755;SDS011;1893;52.526;13.360;2024-03-08T02:51:52;36.77;;;18.80;;
3755;SDS011;1893;52.526;13.360;2024-03-08T02:54:18;34.77;;;18.50;;
3755;SDS011;1893;52.526;13.360;2024-03-08T02:56:44;32.13;;;16.87;;
3755;SDS011;1893;52.526;13.360;2024-03-08T02:59:11;35.67;;;18.60;;
3755;SDS011;1893;52.526;13.360;2024-03-08T03:01:42;31.00;;;16.77;;
3755;SDS011;1893;52.526;13.360;2024-03-08T03:04:08;32.20;;;17.07;;
3755;SDS011;1893;52.526;13.360;2024-03-08T03:06:33;35.63;;;16.53;;
3755;SDS011;1893;52.526;13.360;2024-03-08T03:08:59;33.93;;;17.53;;
3755;SDS011;1893;52.526;13.360;2024-03-08T03:11:24;34.33;;;17.60;;
3755;SDS011;1893;52.526;13.360;2024-03-08T03:13:50;30.10;;;18.23;;
3755;SDS011;1893;52.526;13.360;2024-03-08T03:16:19;35.70;;;18.20;;
3755;SDS011;1893;52.526;13.360;2024-03-08T03:18:45;35.33;;;19.50;;
3755;SDS011;1893;52.526;13.360;2024-03-08T03:21:11;34.03;;;19.20;;
3755;SDS011;1893;52.526;13.360;2024-03-08T03:23:38;33.07;;;17.80;;
3755;SDS011;1893;52.526;13.360;2024-03-08T03:26:05;53.70;;;19.83;;
3755;SDS011;1893;52.526;13.360;2024-03-08T03:28:32;39.43;;;17.90;;
3755;SDS011;1893;52.526;13.360;2024-03-08T03:30:58;38.50;;;19.50;;
3755;SDS011;1893;52.526;13.360;2024-03-08T03:33:24;35.80;;;19.43;;
3755;SDS011;1893;52.526;13.360;2024-03-08T03:35:50;45.80;;;19.60;;
3755;SDS011;1893;52.526;13.360;2024-03-08T03:38:17;36.97;;;19.23;;
3755;SDS011;1893;52.526;13.360;2024-03-08T03:40:44;38.43;;;19.27;;
3755;SDS011;1893;52.526;13.360;2024-03-08T03:43:11;34.43;;;19.17;;
3755;SDS011;1893;52.526;13.360;2024-03-08T03:45:37;36.13;;;17.97;;
3755;SDS011;1893;52.526;13.360;2024-03-08T03:48:04;42.27;;;20.17;;
3755;SDS011;1893;52.526;13.360;2024-03-08T03:50:34;36.33;;;18.90;;
3755;SDS011;1893;52.526;13.360;2024-03-08T03:53:01;35.10;;;17.80;;
3755;SDS011;1893;52.526;13.360;2024-03-08T03:55:27;41.17;;;20.20;;
3755;SDS011;1893;52.526;13.360;2024-03-08T03:57:53;38.67;;;19.20;;
3755;SDS011;1893;52.526;13.360;2024-03-08T04:00:19;38.93;;;19.53;;
3755;SDS011;1893;52.526;13.360;2024-03-08T04:02:45;33.77;;;17.80;;
3755;SDS011;1893;52.526;13.360;2024-03-08T04:05:12;32.50;;;18.97;;
3755;SDS011;1893;52.526;13.360;2024-03-08T04:07:38;34.70;;;19.80;;
3755;SDS011;1893;52.526;13.360;2024-03-08T04:10:04;44.80;;;20.80;;
3755;SDS011;1893;52.526;13.360;2024-03-08T04:12:31;44.90;;;20.07;;
3755;SDS011;1893;52.526;13.360;2024-03-08T04:15:00;36.27;;;19.00;;
3755;SDS011;1893;52.526;13.360;2024-03-08T04:17:26;38.03;;;19.73;;
3755;SDS011;1893;52.526;13.360;2024-03-08T04:19:52;37.77;;;19.20;;
3755;SDS011;1893;52.526;13.360;2024-03-08T04:22:18;41.57;;;19.63;;
3755;SDS011;1893;52.526;13.360;2024-03-08T04:24:44;41.10;;;20.60;;
3755;SDS011;1893;52.526;13.360;2024-03-08T04:27:10;37.20;;;18.60;;
3755;SDS011;1893;52.526;13.360;2024-03-08T04:29:36;33.07;;;18.10;;
3755;SDS011;1893;52.526;13.360;2024-03-08T04:32:05;41.67;;;19.83;;
3755;SDS011;1893;52.526;13.360;2024-03-08T04:34:34;39.40;;;20.97;;
3755;SDS011;1893;52.526;13.360;2024-03-08T04:37:00;41.23;;;19.50;;
3755;SDS011;1893;52.526;13.360;2024-03-08T04:39:27;41.23;;;20.30;;
3755;SDS011;1893;52.526;13.360;2024-03-08T04:41:57;39.47;;;19.40;;
3755;SDS011;1893;52.526;13.360;2024-03-08T04:44:28;45.63;;;20.97;;
3755;SDS011;1893;52.526;13.360;2024-03-08T04:46:54;39.43;;;20.30;;
3755;SDS011;1893;52.526;13.360;2024-03-08T04:49:20;38.90;;;20.00;;
3755;SDS011;1893;52.526;13.360;2024-03-08T04:51:46;38.97;;;19.83;;
3755;SDS011;1893;52.526;13.360;2024-03-08T04:54:12;41.90;;;20.17;;
3755;SDS011;1893;52.526;13.360;2024-03-08T04:56:38;38.60;;;19.43;;
3755;SDS011;1893;52.526;13.360;2024-03-08T04:59:04;40.20;;;19.50;;
3755;SDS011;1893;52.526;13.360;2024-03-08T05:01:33;37.30;;;20.30;;
3755;SDS011;1893;52.526;13.360;2024-03-08T05:04:01;38.90;;;19.57;;
3755;SDS011;1893;52.526;13.360;2024-03-08T05:06:27;47.60;;;22.00;;
3755;SDS011;1893;52.526;13.360;2024-03-08T05:08:53;45.13;;;23.80;;
3755;SDS011;1893;52.526;13.360;2024-03-08T05:11:19;37.37;;;19.90;;
3755;SDS011;1893;52.526;13.360;2024-03-08T05:13:45;39.87;;;21.07;;
3755;SDS011;1893;52.526;13.360;2024-03-08T05:16:10;45.90;;;20.07;;
3755;SDS011;1893;52.526;13.360;2024-03-08T05:18:36;41.37;;;22.07;;
3755;SDS011;1893;52.526;13.360;2024-03-08T05:21:02;38.93;;;19.23;;
3755;SDS011;1893;52.526;13.360;2024-03-08T05:23:29;45.03;;;20.07;;
3755;SDS011;1893;52.526;13.360;2024-03-08T05:25:55;40.53;;;21.13;;
3755;SDS011;1893;52.526;13.360;2024-03-08T05:28:20;49.80;;;21.43;;
3755;SDS011;1893;52.526;13.360;2024-03-08T05:30:46;39.93;;;20.80;;
3755;SDS011;1893;52.526;13.360;2024-03-08T05:33:12;40.47;;;20.50;;
3755;SDS011;1893;52.526;13.360;2024-03-08T05:35:39;43.47;;;21.97;;
3755;SDS011;1893;52.526;13.360;2024-03-08T05:38:05;42.13;;;21.87;;
3755;SDS011;1893;52.526;13.360;2024-03-08T05:40:31;43.60;;;22.27;;
3755;SDS011;1893;52.526;13.360;2024-03-08T05:43:00;41.50;;;21.70;;
3755;SDS011;1893;52.526;13.360;2024-03-08T05:45:26;46.30;;;22.60;;
3755;SDS011;1893;52.526;13.360;2024-03-08T05:47:52;42.83;;;23.53;;
3755;SDS011;1893;52.526;13.360;2024-03-08T05:50:17;39.33;;;21.20;;
3755;SDS011;1893;52.526;13.360;2024-03-08T05:52:44;46.73;;;21.60;;
3755;SDS011;1893;52.526;13.360;2024-03-08T05:55:10;43.73;;;21.40;;
3755;SDS011;1893;52.526;13.360;2024-03-08T05:57:39;40.93;;;21.37;;
3755;SDS011;1893;52.526;13.360;2024-03-08T06:00:05;48.80;;;23.67;;
3755;SDS011;1893;52.526;13.360;2024-03-08T06:02:31;44.10;;;22.87;;
3755;SDS011;1893;52.526;13.360;2024-03-08T06:04:57;41.83;;;20.77;;
3755;SDS011;1893;52.526;13.360;2024-03-08T06:07:23;43.70;;;21.50;;
3755;SDS011;1893;52.526;13.360;2024-03-08T06:09:49;45.67;;;21.70;;
3755;SDS011;1893;52.526;13.360;2024-03-08T06:12:15;37.57;;;22.00;;
3755;SDS011;1893;52.526;13.360;2024-03-08T06:14:44;42.00;;;20.60;;
3755;SDS011;1893;52.526;13.360;2024-03-08T06:17:10;43.63;;;22.60;;
3755;SDS011;1893;52.526;13.360;2024-03-08T06:19:36;39.13;;;21.80;;
3755;SDS011;1893;52.526;13.360;2024-03-08T06:22:02;44.80;;;22.47;;
3755;SDS011;1893;52.526;13.360;2024-03-08T06:24:30;37.77;;;21.80;;
3755;SDS011;1893;52.526;13.360;2024-03-08T06:26:56;37.60;;;20.97;;
3755;SDS011;1893;52.526;13.360;2024-03-08T06:29:22;43.53;;;22.57;;
3755;SDS011;1893;52.526;13.360;2024-03-08T06:31:48;44.20;;;21.60;;
3755;SDS011;1893;52.526;13.360;2024-03-08T06:34:14;43.17;;;21.73;;
3755;SDS011;1893;52.526;13.360;2024-03-08T06:36:40;44.50;;;21.47;;
3755;SDS011;1893;52.526;13.360;2024-03-08T06:39:06;39.97;;;21.00;;
3755;SDS011;1893;52.526;13.360;2024-03-08T06:41:35;45.53;;;23.83;;
3755;SDS011;1893;52.526;13.360;2024-03-08T06:44:01;51.50;;;22.40;;
3755;SDS011;1893;52.526;13.360;2024-03-08T06:46:27;42.17;;;24.17;;
3755;SDS011;1893;52.526;13.360;2024-03-08T06:48:53;42.30;;;22.50;;
3755;SDS011;1893;52.526;13.360;2024-03-08T06:51:18;40.97;;;22.30;;
3755;SDS011;1893;52.526;13.360;2024-03-08T06:53:44;42.20;;;21.93;;
3755;SDS011;1893;52.526;13.360;2024-03-08T06:56:10;41.40;;;21.50;;
3755;SDS011;1893;52.526;13.360;2024-03-08T06:58:36;42.37;;;22.90;;
3755;SDS011;1893;52.526;13.360;2024-03-08T07:01:02;41.80;;;23.10;;
3755;SDS011;1893;52.526;13.360;2024-03-08T07:03:32;41.60;;;23.17;;
3755;SDS011;1893;52.526;13.360;2024-03-08T07:05:58;36.90;;;22.47;;
3755;SDS011;1893;52.526;13.360;2024-03-08T07:08:24;36.63;;;22.33;;
3755;SDS011;1893;52.526;13.360;2024-03-08T07:10:51;40.60;;;22.80;;
3755;SDS011;1893;52.526;13.360;2024-03-08T07:13:17;34.50;;;21.70;;
3755;SDS011;1893;52.526;13.360;2024-03-08T07:15:43;40.90;;;23.87;;
3755;SDS011;1893;52.526;13.360;2024-03-08T07:18:10;37.67;;;22.70;;
3755;SDS011;1893;52.526;13.360;2024-03-08T07:20:39;39.53;;;22.10;;
3755;SDS011;1893;52.526;13.360;2024-03-08T07:23:05;36.97;;;22.20;;
3755;SDS011;1893;52.526;13.360;2024-03-08T07:25:31;39.63;;;22.63;;
3755;SDS011;1893;52.526;13.360;2024-03-08T07:27:56;34.30;;;21.10;;
3755;SDS011;1893;52.526;13.360;2024-03-08T07:30:25;44.30;;;22.87;;
3755;SDS011;1893;52.526;13.360;2024-03-08T07:33:10;31.00;;;21.63;;
3755;SDS011;1893;52.526;13.360;2024-03-08T07:35:39;34.63;;;20.00;;
3755;SDS011;1893;52.526;13.360;2024-03-08T07:38:05;35.87;;;21.17;;
3755;SDS011;1893;52.526;13.360;2024-03-08T07:40:36;34.00;;;20.80;;
3755;SDS011;1893;52.526;13.360;2024-03-08T07:43:05;29.37;;;19.10;;
3755;SDS011;1893;52.526;13.360;2024-03-08T07:45:33;35.30;;;21.03;;
3755;SDS011;1893;52.526;13.360;2024-03-08T07:48:00;36.20;;;22.60;;
3755;SDS011;1893;52.526;13.360;2024-03-08T07:50:27;28.03;;;18.90;;
3755;SDS011;1893;52.526;13.360;2024-03-08T07:52:53;31.83;;;19.70;;
3755;SDS011;1893;52.526;13.360;2024-03-08T07:55:19;36.20;;;21.90;;
3755;SDS011;1893;52.526;13.360;2024-03-08T07:57:45;38.50;;;21.10;;
3755;SDS011;1893;52.526;13.360;2024-03-08T08:00:12;33.03;;;21.37;;
3755;SDS011;1893;52.526;13.360;2024-03-08T08:02:42;44.57;;;28.63;;
3755;SDS011;1893;52.526;13.360;2024-03-08T08:05:11;53.27;;;32.77;;
3755;SDS011;1893;52.526;13.360;2024-03-08T08:07:37;56.23;;;34.03;;
3755;SDS011;1893;52.526;13.360;2024-03-08T08:10:03;57.97;;;37.10;;
3755;SDS011;1893;52.526;13.360;2024-03-08T08:12:31;60.20;;;41.17;;
3755;SDS011;1893;52.526;13.360;2024-03-08T08:14:59;63.00;;;41.30;;
3755;SDS011;1893;52.526;13.360;2024-03-08T08:17:25;62.60;;;39.80;;
3755;SDS011;1893;52.526;13.360;2024-03-08T08:19:50;60.30;;;41.60;;
3755;SDS011;1893;52.526;13.360;2024-03-08T08:22:16;68.40;;;41.87;;
3755;SDS011;1893;52.526;13.360;2024-03-08T08:24:43;70.30;;;40.90;;
3755;SDS011;1893;52.526;13.360;2024-03-08T08:27:08;63.73;;;42.33;;
3755;SDS011;1893;52.526;13.360;2024-03-08T08:29:34;65.23;;;38.77;;
3755;SDS011;1893;52.526;13.360;2024-03-08T08:32:00;69.20;;;41.77;;
3755;SDS011;1893;52.526;13.360;2024-03-08T08:34:26;59.80;;;37.50;;
3755;SDS011;1893;52.526;13.360;2024-03-08T08:36:52;59.80;;;36.97;;
3755;SDS011;1893;52.526;13.360;2024-03-08T08:39:18;57.30;;;33.20;;
3755;SDS011;1893;52.526;13.360;2024-03-08T08:41:44;48.50;;;30.67;;
3755;SDS011;1893;52.526;13.360;2024-03-08T08:44:09;47.17;;;30.27;;
3755;SDS011;1893;52.526;13.360;2024-03-08T08:46:37;46.80;;;30.00;;
3755;SDS011;1893;52.526;13.360;2024-03-08T08:49:03;55.47;;;30.50;;
3755;SDS011;1893;52.526;13.360;2024-03-08T08:51:30;53.33;;;26.97;;
3755;SDS011;1893;52.526;13.360;2024-03-08T08:53:56;41.93;;;25.70;;
3755;SDS011;1893;52.526;13.360;2024-03-08T08:56:21;38.13;;;24.27;;
3755;SDS011;1893;52.526;13.360;2024-03-08T08:58:47;35.27;;;20.60;;
3755;SDS011;1893;52.526;13.360;2024-03-08T09:01:14;31.93;;;19.60;;
3755;SDS011;1893;52.526;13.360;2024-03-08T09:03:39;33.40;;;20.10;;
3755;SDS011;1893;52.526;13.360;2024-03-08T09:06:06;39.67;;;20.80;;
3755;SDS011;1893;52.526;13.360;2024-03-08T09:08:38;31.83;;;20.00;;
3755;SDS011;1893;52.526;13.360;2024-03-08T09:11:04;30.40;;;19.47;;
3755;SDS011;1893;52.526;13.360;2024-03-08T09:13:30;36.43;;;19.47;;
3755;SDS011;1893;52.526;13.360;2024-03-08T09:15:56;29.30;;;19.50;;
3755;SDS011;1893;52.526;13.360;2024-03-08T09:18:22;33.67;;;21.27;;
3755;SDS011;1893;52.526;13.360;2024-03-08T09:20:49;33.03;;;21.57;;
3755;SDS011;1893;52.526;13.360;2024-03-08T09:23:15;33.00;;;20.40;;
3755;SDS011;1893;52.526;13.360;2024-03-08T09:25:42;31.50;;;20.07;;
3755;SDS011;1893;52.526;13.360;2024-03-08T09:28:08;32.43;;;20.50;;
3755;SDS011;1893;52.526;13.360;2024-03-08T09:30:36;31.60;;;20.97;;
3755;SDS011;1893;52.526;13.360;2024-03-08T09:33:03;32.70;;;19.70;;
3755;SDS011;1893;52.526;13.360;2024-03-08T09:35:29;35.40;;;22.87;;
3755;SDS011;1893;52.526;13.360;2024-03-08T09:37:55;34.60;;;21.63;;
3755;SDS011;1893;52.526;13.360;2024-03-08T09:40:21;37.07;;;22.20;;
3755;SDS011;1893;52.526;13.360;2024-03-08T09:42:49;32.87;;;21.40;;
3755;SDS011;1893;52.526;13.360;2024-03-08T09:45:15;30.50;;;21.03;;
3755;SDS011;1893;52.526;13.360;2024-03-08T09:47:42;35.77;;;21.17;;
3755;SDS011;1893;52.526;13.360;2024-03-08T09:50:09;32.93;;;21.33;;
3755;SDS011;1893;52.526;13.360;2024-03-08T09:52:40;37.37;;;25.07;;
3755;SDS011;1893;52.526;13.360;2024-03-08T09:55:09;32.03;;;22.00;;
3755;SDS011;1893;52.526;13.360;2024-03-08T09:57:38;37.27;;;23.00;;
3755;SDS011;1893;52.526;13.360;2024-03-08T10:00:05;30.87;;;21.57;;
3755;SDS011;1893;52.526;13.360;2024-03-08T10:02:45;33.53;;;22.73;;
3755;SDS011;1893;52.526;13.360;2024-03-08T10:05:11;31.17;;;19.87;;
3755;SDS011;1893;52.526;13.360;2024-03-08T10:07:37;46.10;;;24.53;;
3755;SDS011;1893;52.526;13.360;2024-03-08T10:10:03;33.80;;;20.53;;
3755;SDS011;1893;52.526;13.360;2024-03-08T10:12:29;28.50;;;19.80;;
3755;SDS011;1893;52.526;13.360;2024-03-08T10:14:56;29.67;;;20.40;;
3755;SDS011;1893;52.526;13.360;2024-03-08T10:17:23;40.50;;;19.50;;
3755;SDS011;1893;52.526;13.360;2024-03-08T10:19:50;35.20;;;19.40;;
3755;SDS011;1893;52.526;13.360;2024-03-08T10:22:19;28.80;;;18.63;;
3755;SDS011;1893;52.526;13.360;2024-03-08T10:24:47;28.57;;;18.77;;
3755;SDS011;1893;52.526;13.360;2024-03-08T10:27:14;28.23;;;18.30;;
3755;SDS011;1893;52.526;13.360;2024-03-08T10:29:41;24.33;;;17.63;;
3755;SDS011;1893;52.526;13.360;2024-03-08T10:32:09;27.70;;;18.13;;
3755;SDS011;1893;52.526;13.360;2024-03-08T10:34:35;26.43;;;18.40;;
3755;SDS011;1893;52.526;13.360;2024-03-08T10:37:04;26.40;;;19.40;;
3755;SDS011;1893;52.526;13.360;2024-03-08T10:39:34;36.70;;;18.40;;
3755;SDS011;1893;52.526;13.360;2024-03-08T10:42:02;25.83;;;18.47;;
3755;SDS011;1893;52.526;13.360;2024-03-08T10:47:02;27.73;;;17.37;;
3755;SDS011;1893;52.526;13.360;2024-03-08T10:49:48;22.03;;;17.13;;
3755;SDS011;1893;52.526;13.360;2024-03-08T10:52:19;24.90;;;17.03;;
3755;SDS011;1893;52.526;13.360;2024-03-08T10:54:45;24.83;;;17.40;;
3755;SDS011;1893;52.526;13.360;2024-03-08T10:57:14;26.40;;;17.63;;
3755;SDS011;1893;52.526;13.360;2024-03-08T10:59:42;25.53;;;17.17;;
3755;SDS011;1893;52.526;13.360;2024-03-08T11:02:10;22.00;;;16.73;;
3755;SDS011;1893;52.526;13.360;2024-03-08T11:04:37;20.97;;;15.90;;
3755;SDS011;1893;52.526;13.360;2024-03-08T11:07:03;25.57;;;17.33;;
3755;SDS011;1893;52.526;13.360;2024-03-08T11:09:32;20.47;;;14.70;;
3755;SDS011;1893;52.526;13.360;2024-03-08T11:12:20;22.23;;;15.07;;
3755;SDS011;1893;52.526;13.360;2024-03-08T11:14:47;23.80;;;16.80;;
3755;SDS011;1893;52.526;13.360;2024-03-08T11:17:15;25.57;;;16.70;;
3755;SDS011;1893;52.526;13.360;2024-03-08T11:19:46;25.00;;;16.00;;
3755;SDS011;1893;52.526;13.360;2024-03-08T11:22:20;24.03;;;16.60;;
3755;SDS011;1893;52.526;13.360;2024-03-08T11:24:52;26.03;;;17.30;;
3755;SDS011;1893;52.526;13.360;2024-03-08T11:27:17;24.90;;;17.30;;
3755;SDS011;1893;52.526;13.360;2024-03-08T11:29:46;24.90;;;17.53;;
3755;SDS011;1893;52.526;13.360;2024-03-08T11:32:36;27.13;;;15.80;;
3755;SDS011;1893;52.526;13.360;2024-03-08T11:35:06;22.50;;;16.23;;
3755;SDS011;1893;52.526;13.360;2024-03-08T11:37:34;26.20;;;17.77;;
3755;SDS011;1893;52.526;13.360;2024-03-08T11:40:01;21.37;;;15.93;;
3755;SDS011;1893;52.526;13.360;2024-03-08T11:42:29;21.93;;;16.50;;
3755;SDS011;1893;52.526;13.360;2024-03-08T11:44:55;26.57;;;17.27;;
3755;SDS011;1893;52.526;13.360;2024-03-08T11:47:21;26.13;;;17.63;;
3755;SDS011;1893;52.526;13.360;2024-03-08T11:49:47;19.87;;;14.50;;
3755;SDS011;1893;52.526;13.360;2024-03-08T11:52:14;23.83;;;15.60;;
3755;SDS011;1893;52.526;13.360;2024-03-08T11:55:02;21.80;;;15.43;;
3755;SDS011;1893;52.526;13.360;2024-03-08T11:57:28;20.07;;;16.00;;
3755;SDS011;1893;52.526;13.360;2024-03-08T11:59:55;22.40;;;15.90;;
3755;SDS011;1893;52.526;13.360;2024-03-08T12:02:30;23.57;;;16.80;;
3755;SDS011;1893;52.526;13.360;2024-03-08T12:04:57;23.90;;;17.20;;
3755;SDS011;1893;52.526;13.360;2024-03-08T12:07:28;25.73;;;17.20;;
3755;SDS011;1893;52.526;13.360;2024-03-08T12:12:46;24.57;;;15.43;;
3755;SDS011;1893;52.526;13.360;2024-03-08T12:15:17;25.60;;;16.93;;
3755;SDS011;1893;52.526;13.360;2024-03-08T12:17:44;22.63;;;15.87;;
3755;SDS011;1893;52.526;13.360;2024-03-08T12:22:49;24.00;;;16.67;;
3755;SDS011;1893;52.526;13.360;2024-03-08T12:25:17;21.13;;;15.90;;
3755;SDS011;1893;52.526;13.360;2024-03-08T12:27:43;23.67;;;16.83;;
3755;SDS011;1893;52.526;13.360;2024-03-08T12:30:25;22.53;;;15.70;;
3755;SDS011;1893;52.526;13.360;2024-03-08T12:33:01;22.63;;;16.50;;
3755;SDS011;1893;52.526;13.360;2024-03-08T12:35:27;26.70;;;17.50;;
3755;SDS011;1893;52.526;13.360;2024-03-08T12:37:57;23.00;;;16.80;;
3755;SDS011;1893;52.526;13.360;2024-03-08T12:40:27;23.60;;;17.50;;
3755;SDS011;1893;52.526;13.360;2024-03-08T12:42:55;25.47;;;16.77;;
3755;SDS011;1893;52.526;13.360;2024-03-08T12:45:21;24.20;;;17.70;;
3755;SDS011;1893;52.526;13.360;2024-03-08T12:47:49;25.37;;;18.53;;
3755;SDS011;1893;52.526;13.360;2024-03-08T12:50:15;23.80;;;16.10;;
3755;SDS011;1893;52.526;13.360;2024-03-08T12:52:42;24.47;;;16.13;;
3755;SDS011;1893;52.526;13.360;2024-03-08T12:55:08;21.60;;;16.63;;
3755;SDS011;1893;52.526;13.360;2024-03-08T12:57:37;24.00;;;16.73;;
3755;SDS011;1893;52.526;13.360;2024-03-08T13:00:03;21.30;;;16.17;;
3755;SDS011;1893;52.526;13.360;2024-03-08T13:02:29;22.80;;;15.87;;
3755;SDS011;1893;52.526;13.360;2024-03-08T13:04:57;22.53;;;16.10;;
3755;SDS011;1893;52.526;13.360;2024-03-08T13:07:23;26.13;;;15.73;;
3755;SDS011;1893;52.526;13.360;2024-03-08T13:09:53;22.60;;;15.77;;
3755;SDS011;1893;52.526;13.360;2024-03-08T13:12:20;21.93;;;15.97;;
3755;SDS011;1893;52.526;13.360;2024-03-08T13:14:47;20.90;;;15.07;;
3755;SDS011;1893;52.526;13.360;2024-03-08T13:17:15;28.47;;;16.93;;
3755;SDS011;1893;52.526;13.360;2024-03-08T13:19:43;24.33;;;15.60;;
3755;SDS011;1893;52.526;13.360;2024-03-08T13:22:09;23.80;;;16.57;;
3755;SDS011;1893;52.526;13.360;2024-03-08T13:24:41;22.57;;;15.63;;
3755;SDS011;1893;52.526;13.360;2024-03-08T13:27:07;20.30;;;16.07;;
3755;SDS011;1893;52.526;13.360;2024-03-08T13:29:44;22.60;;;15.90;;
3755;SDS011;1893;52.526;13.360;2024-03-08T13:32:14;19.27;;;15.20;;
3755;SDS011;1893;52.526;13.360;2024-03-08T13:34:41;26.23;;;16.03;;
3755;SDS011;1893;52.526;13.360;2024-03-08T13:37:07;19.27;;;14.97;;
3755;SDS011;1893;52.526;13.360;2024-03-08T13:39:35;20.43;;;14.67;;
3755;SDS011;1893;52.526;13.360;2024-03-08T13:42:10;21.20;;;15.10;;
3755;SDS011;1893;52.526;13.360;2024-03-08T13:44:47;23.90;;;15.80;;
3755;SDS011;1893;52.526;13.360;2024-03-08T13:47:14;24.43;;;16.50;;
3755;SDS011;1893;52.526;13.360;2024-03-08T13:49:41;19.70;;;15.30;;
3755;SDS011;1893;52.526;13.360;2024-03-08T13:52:08;20.97;;;15.47;;
3755;SDS011;1893;52.526;13.360;2024-03-08T13:54:35;20.40;;;15.80;;
3755;SDS011;1893;52.526;13.360;2024-03-08T13:57:01;22.53;;;16.43;;
3755;SDS011;1893;52.526;13.360;2024-03-08T13:59:32;23.23;;;15.40;;
3755;SDS011;1893;52.526;13.360;2024-03-08T14:02:00;19.57;;;14.23;;
3755;SDS011;1893;52.526;13.360;2024-03-08T14:04:27;23.40;;;15.50;;
3755;SDS011;1893;52.526;13.360;2024-03-08T14:06:56;18.60;;;13.70;;
3755;SDS011;1893;52.526;13.360;2024-03-08T14:09:24;19.20;;;14.53;;
3755;SDS011;1893;52.526;13.360;2024-03-08T14:11:54;20.63;;;13.23;;
3755;SDS011;1893;52.526;13.360;2024-03-08T14:14:23;19.37;;;13.30;;
3755;SDS011;1893;52.526;13.360;2024-03-08T14:16:49;18.07;;;13.60;;
3755;SDS011;1893;52.526;13.360;2024-03-08T14:19:19;19.17;;;13.47;;
3755;SDS011;1893;52.526;13.360;2024-03-08T14:21:45;21.10;;;14.73;;
3755;SDS011;1893;52.526;13.360;2024-03-08T14:24:13;22.80;;;14.30;;
3755;SDS011;1893;52.526;13.360;2024-03-08T14:26:42;21.43;;;14.30;;
3755;SDS011;1893;52.526;13.360;2024-03-08T14:29:08;25.60;;;15.27;;
3755;SDS011;1893;52.526;13.360;2024-03-08T14:31:35;20.97;;;14.60;;
3755;SDS011;1893;52.526;13.360;2024-03-08T14:34:01;20.87;;;14.63;;
3755;SDS011;1893;52.526;13.360;2024-03-08T14:36:28;25.57;;;15.10;;
3755;SDS011;1893;52.526;13.360;2024-03-08T14:38:54;23.47;;;15.60;;
3755;SDS011;1893;52.526;13.360;2024-03-08T14:41:20;26.00;;;13.77;;